sensor_id;sensor_type;location;lat;lon;timestamp;P1;durP1;ratioP1;P2;durP2;ratioP2
24644;SDS011;12780;45.502;9.146;2023-07-09T00:00:25;12.20;;;6.45;;
24644;SDS011;12780;45.502;9.146;2023-07-09T00:02:51;14.57;;;6.78;;
24644;SDS011;12780;45.502;9.146;2023-07-09T00:05:17;10.25;;;6.22;;
24644;SDS011;12780;45.502;9.146;2023-07-09T00:07:43;11.20;;;6.63;;
24644;SDS011;12780;45.502;9.146;2023-07-09T00:10:17;11.65;;;6.00;;
24644;SDS011;12780;45.502;9.146;2023-07-09T00:12:44;12.32;;;6.63;;
24644;SDS011;12780;45.502;9.146;2023-07-09T00:15:11;13.45;;;6.82;;
24644;SDS011;12780;45.502;9.146;2023-07-09T00:17:37;13.98;;;6.70;;
24644;SDS011;12780;45.502;9.146;2023-07-09T00:20:05;14.30;;;6.63;;
24644;SDS011;12780;45.502;9.146;2023-07-09T00:22:38;11.65;;;6.28;;
24644;SDS011;12780;45.502;9.146;2023-07-09T00:25:04;15.75;;;6.75;;
24644;SDS011;12780;45.502;9.146;2023-07-09T00:27:30;15.50;;;6.85;;
24644;SDS011;12780;45.502;9.146;2023-07-09T00:29:56;12.02;;;6.93;;
24644;SDS011;12780;45.502;9.146;2023-07-09T00:32:22;13.70;;;6.85;;
24644;SDS011;12780;45.502;9.146;2023-07-09T00:34:50;11.93;;;7.05;;
24644;SDS011;12780;45.502;9.146;2023-07-09T00:37:19;11.27;;;6.40;;
24644;SDS011;12780;45.502;9.146;2023-07-09T00:39:46;13.93;;;6.97;;
24644;SDS011;12780;45.502;9.146;2023-07-09T00:42:13;13.45;;;6.88;;
24644;SDS011;12780;45.502;9.146;2023-07-09T00:44:42;12.05;;;5.95;;
24644;SDS011;12780;45.502;9.146;2023-07-09T00:47:16;11.38;;;6.68;;
24644;SDS011;12780;45.502;9.146;2023-07-09T00:49:43;13.10;;;7.10;;
24644;SDS011;12780;45.502;9.146;2023-07-09T00:55:19;13.55;;;6.95;;
24644;SDS011;12780;45.502;9.146;2023-07-09T00:57:46;13.57;;;6.60;;
24644;SDS011;12780;45.502;9.146;2023-07-09T01:00:21;12.85;;;7.57;;
24644;SDS011;12780;45.502;9.146;2023-07-09T01:02:48;11.38;;;6.30;;
24644;SDS011;12780;45.502;9.146;2023-07-09T01:05:14;12.07;;;7.10;;
24644;SDS011;12780;45.502;9.146;2023-07-09T01:07:42;11.60;;;6.43;;
24644;SDS011;12780;45.502;9.146;2023-07-09T01:10:11;11.52;;;6.40;;
24644;SDS011;12780;45.502;9.146;2023-07-09T01:12:37;13.10;;;7.38;;
24644;SDS011;12780;45.502;9.146;2023-07-09T01:15:03;12.65;;;6.80;;
24644;SDS011;12780;45.502;9.146;2023-07-09T01:17:32;13.13;;;6.70;;
24644;SDS011;12780;45.502;9.146;2023-07-09T01:19:58;15.73;;;6.80;;
24644;SDS011;12780;45.502;9.146;2023-07-09T01:22:24;11.40;;;6.55;;
24644;SDS011;12780;45.502;9.146;2023-07-09T01:27:20;16.17;;;7.60;;
24644;SDS011;12780;45.502;9.146;2023-07-09T01:29:46;13.02;;;7.10;;
24644;SDS011;12780;45.502;9.146;2023-07-09T01:32:14;10.95;;;6.72;;
24644;SDS011;12780;45.502;9.146;2023-07-09T01:34:43;19.25;;;7.25;;
24644;SDS011;12780;45.502;9.146;2023-07-09T01:37:09;12.07;;;6.82;;
24644;SDS011;12780;45.502;9.146;2023-07-09T01:39:35;12.57;;;7.03;;
24644;SDS011;12780;45.502;9.146;2023-07-09T01:42:01;12.35;;;7.35;;
24644;SDS011;12780;45.502;9.146;2023-07-09T01:44:27;16.35;;;7.05;;
24644;SDS011;12780;45.502;9.146;2023-07-09T01:46:54;12.68;;;6.82;;
24644;SDS011;12780;45.502;9.146;2023-07-09T01:49:20;11.68;;;7.05;;
24644;SDS011;12780;45.502;9.146;2023-07-09T01:51:46;14.60;;;7.35;;
24644;SDS011;12780;45.502;9.146;2023-07-09T01:54:14;14.95;;;7.38;;
24644;SDS011;12780;45.502;9.146;2023-07-09T01:56:41;11.75;;;6.70;;
24644;SDS011;12780;45.502;9.146;2023-07-09T01:59:07;15.77;;;7.25;;
24644;SDS011;12780;45.502;9.146;2023-07-09T02:01:36;15.02;;;7.72;;
24644;SDS011;12780;45.502;9.146;2023-07-09T02:04:03;15.73;;;7.40;;
24644;SDS011;12780;45.502;9.146;2023-07-09T02:06:29;13.70;;;7.20;;
24644;SDS011;12780;45.502;9.146;2023-07-09T02:08:56;13.27;;;7.82;;
24644;SDS011;12780;45.502;9.146;2023-07-09T02:11:23;11.45;;;7.00;;
24644;SDS011;12780;45.502;9.146;2023-07-09T02:13:49;14.68;;;7.20;;
24644;SDS011;12780;45.502;9.146;2023-07-09T02:16:15;15.48;;;7.72;;
24644;SDS011;12780;45.502;9.146;2023-07-09T02:18:41;11.98;;;7.07;;
24644;SDS011;12780;45.502;9.146;2023-07-09T02:21:07;12.15;;;6.78;;
24644;SDS011;12780;45.502;9.146;2023-07-09T02:23:33;11.98;;;7.10;;
24644;SDS011;12780;45.502;9.146;2023-07-09T02:25:59;10.45;;;6.75;;
24644;SDS011;12780;45.502;9.146;2023-07-09T02:28:25;13.43;;;6.60;;
24644;SDS011;12780;45.502;9.146;2023-07-09T02:30:51;17.20;;;8.32;;
24644;SDS011;12780;45.502;9.146;2023-07-09T02:33:18;11.45;;;6.72;;
24644;SDS011;12780;45.502;9.146;2023-07-09T02:35:45;16.10;;;6.53;;
24644;SDS011;12780;45.502;9.146;2023-07-09T02:38:11;14.20;;;7.18;;
24644;SDS011;12780;45.502;9.146;2023-07-09T02:40:38;10.77;;;6.57;;
24644;SDS011;12780;45.502;9.146;2023-07-09T02:43:04;15.63;;;7.80;;
24644;SDS011;12780;45.502;9.146;2023-07-09T02:45:30;12.25;;;6.97;;
24644;SDS011;12780;45.502;9.146;2023-07-09T02:47:56;12.73;;;7.32;;
24644;SDS011;12780;45.502;9.146;2023-07-09T02:50:22;11.65;;;6.38;;
24644;SDS011;12780;45.502;9.146;2023-07-09T02:52:48;12.23;;;6.40;;
24644;SDS011;12780;45.502;9.146;2023-07-09T02:55:14;10.20;;;6.35;;
24644;SDS011;12780;45.502;9.146;2023-07-09T02:57:40;13.98;;;6.93;;
24644;SDS011;12780;45.502;9.146;2023-07-09T03:00:06;11.07;;;6.90;;
24644;SDS011;12780;45.502;9.146;2023-07-09T03:02:33;12.27;;;6.70;;
24644;SDS011;12780;45.502;9.146;2023-07-09T03:04:59;13.00;;;6.95;;
24644;SDS011;12780;45.502;9.146;2023-07-09T03:07:25;11.38;;;6.50;;
24644;SDS011;12780;45.502;9.146;2023-07-09T03:09:51;11.20;;;6.85;;
24644;SDS011;12780;45.502;9.146;2023-07-09T03:12:18;14.70;;;6.55;;
24644;SDS011;12780;45.502;9.146;2023-07-09T03:14:47;13.10;;;6.88;;
24644;SDS011;12780;45.502;9.146;2023-07-09T03:17:13;11.77;;;6.72;;
24644;SDS011;12780;45.502;9.146;2023-07-09T03:19:39;10.68;;;6.28;;
24644;SDS011;12780;45.502;9.146;2023-07-09T03:22:05;13.35;;;6.60;;
24644;SDS011;12780;45.502;9.146;2023-07-09T03:24:31;11.98;;;6.90;;
24644;SDS011;12780;45.502;9.146;2023-07-09T03:26:57;14.45;;;6.63;;
24644;SDS011;12780;45.502;9.146;2023-07-09T03:29:23;10.82;;;6.88;;
24644;SDS011;12780;45.502;9.146;2023-07-09T03:31:49;13.25;;;6.40;;
24644;SDS011;12780;45.502;9.146;2023-07-09T03:34:15;10.75;;;6.72;;
24644;SDS011;12780;45.502;9.146;2023-07-09T03:36:41;14.77;;;7.25;;
24644;SDS011;12780;45.502;9.146;2023-07-09T03:39:07;11.90;;;6.85;;
24644;SDS011;12780;45.502;9.146;2023-07-09T03:41:33;11.70;;;6.85;;
24644;SDS011;12780;45.502;9.146;2023-07-09T03:43:59;13.50;;;7.30;;
24644;SDS011;12780;45.502;9.146;2023-07-09T03:46:26;14.63;;;6.75;;
24644;SDS011;12780;45.502;9.146;2023-07-09T03:48:52;9.15;;;6.43;;
24644;SDS011;12780;45.502;9.146;2023-07-09T03:51:18;10.98;;;6.53;;
24644;SDS011;12780;45.502;9.146;2023-07-09T03:53:44;13.48;;;6.47;;
24644;SDS011;12780;45.502;9.146;2023-07-09T03:56:10;15.95;;;6.75;;
24644;SDS011;12780;45.502;9.146;2023-07-09T03:58:36;13.55;;;6.65;;
24644;SDS011;12780;45.502;9.146;2023-07-09T04:01:02;13.40;;;6.40;;
24644;SDS011;12780;45.502;9.146;2023-07-09T04:03:28;14.20;;;6.68;;
24644;SDS011;12780;45.502;9.146;2023-07-09T04:05:54;12.07;;;6.28;;
24644;SDS011;12780;45.502;9.146;2023-07-09T04:08:20;10.25;;;5.93;;
24644;SDS011;12780;45.502;9.146;2023-07-09T04:10:46;13.38;;;6.30;;
24644;SDS011;12780;45.502;9.146;2023-07-09T04:13:12;10.68;;;6.35;;
24644;SDS011;12780;45.502;9.146;2023-07-09T04:15:38;14.18;;;6.82;;
24644;SDS011;12780;45.502;9.146;2023-07-09T04:18:04;10.38;;;6.43;;
24644;SDS011;12780;45.502;9.146;2023-07-09T04:20:30;11.35;;;6.10;;
24644;SDS011;12780;45.502;9.146;2023-07-09T04:22:56;10.25;;;5.85;;
24644;SDS011;12780;45.502;9.146;2023-07-09T04:25:22;11.52;;;6.18;;
24644;SDS011;12780;45.502;9.146;2023-07-09T04:27:48;12.25;;;6.40;;
24644;SDS011;12780;45.502;9.146;2023-07-09T04:30:15;13.52;;;6.07;;
24644;SDS011;12780;45.502;9.146;2023-07-09T04:32:45;13.40;;;6.40;;
24644;SDS011;12780;45.502;9.146;2023-07-09T04:35:12;14.10;;;6.10;;
24644;SDS011;12780;45.502;9.146;2023-07-09T04:37:38;14.23;;;6.15;;
24644;SDS011;12780;45.502;9.146;2023-07-09T04:40:05;9.60;;;6.20;;
24644;SDS011;12780;45.502;9.146;2023-07-09T04:42:32;12.82;;;5.72;;
24644;SDS011;12780;45.502;9.146;2023-07-09T04:44:58;13.95;;;6.40;;
24644;SDS011;12780;45.502;9.146;2023-07-09T04:47:24;16.55;;;6.18;;
24644;SDS011;12780;45.502;9.146;2023-07-09T04:49:50;9.73;;;5.82;;
24644;SDS011;12780;45.502;9.146;2023-07-09T04:52:16;13.88;;;6.43;;
24644;SDS011;12780;45.502;9.146;2023-07-09T04:54:42;13.13;;;6.32;;
24644;SDS011;12780;45.502;9.146;2023-07-09T04:57:09;12.20;;;6.35;;
24644;SDS011;12780;45.502;9.146;2023-07-09T04:59:35;10.48;;;6.72;;
24644;SDS011;12780;45.502;9.146;2023-07-09T05:02:01;12.65;;;6.00;;
24644;SDS011;12780;45.502;9.146;2023-07-09T05:04:28;10.88;;;6.63;;
24644;SDS011;12780;45.502;9.146;2023-07-09T05:06:54;16.20;;;6.45;;
24644;SDS011;12780;45.502;9.146;2023-07-09T05:09:20;11.73;;;6.55;;
24644;SDS011;12780;45.502;9.146;2023-07-09T05:11:48;11.23;;;6.25;;
24644;SDS011;12780;45.502;9.146;2023-07-09T05:14:15;10.77;;;5.93;;
24644;SDS011;12780;45.502;9.146;2023-07-09T05:16:41;15.05;;;6.60;;
24644;SDS011;12780;45.502;9.146;2023-07-09T05:19:07;9.20;;;5.45;;
24644;SDS011;12780;45.502;9.146;2023-07-09T05:21:34;11.77;;;6.25;;
24644;SDS011;12780;45.502;9.146;2023-07-09T05:24:00;13.25;;;6.55;;
24644;SDS011;12780;45.502;9.146;2023-07-09T05:26:26;13.57;;;6.65;;
24644;SDS011;12780;45.502;9.146;2023-07-09T05:28:52;10.88;;;6.25;;
24644;SDS011;12780;45.502;9.146;2023-07-09T05:31:18;10.13;;;6.07;;
24644;SDS011;12780;45.502;9.146;2023-07-09T05:33:44;10.73;;;6.03;;
24644;SDS011;12780;45.502;9.146;2023-07-09T05:36:10;10.20;;;5.93;;
24644;SDS011;12780;45.502;9.146;2023-07-09T05:38:40;9.18;;;6.07;;
24644;SDS011;12780;45.502;9.146;2023-07-09T05:41:06;12.27;;;6.70;;
24644;SDS011;12780;45.502;9.146;2023-07-09T05:43:32;14.18;;;6.28;;
24644;SDS011;12780;45.502;9.146;2023-07-09T05:46:00;11.77;;;6.65;;
24644;SDS011;12780;45.502;9.146;2023-07-09T05:48:26;12.38;;;5.75;;
24644;SDS011;12780;45.502;9.146;2023-07-09T05:50:53;10.57;;;6.15;;
24644;SDS011;12780;45.502;9.146;2023-07-09T05:53:23;8.82;;;5.65;;
24644;SDS011;12780;45.502;9.146;2023-07-09T05:55:52;11.20;;;5.85;;
24644;SDS011;12780;45.502;9.146;2023-07-09T05:58:18;14.30;;;6.45;;
24644;SDS011;12780;45.502;9.146;2023-07-09T06:00:44;13.50;;;6.65;;
24644;SDS011;12780;45.502;9.146;2023-07-09T06:03:10;9.88;;;5.80;;
24644;SDS011;12780;45.502;9.146;2023-07-09T06:05:36;11.88;;;6.20;;
24644;SDS011;12780;45.502;9.146;2023-07-09T06:08:03;12.55;;;6.10;;
24644;SDS011;12780;45.502;9.146;2023-07-09T06:10:29;13.50;;;6.95;;
24644;SDS011;12780;45.502;9.146;2023-07-09T06:12:55;14.43;;;6.90;;
24644;SDS011;12780;45.502;9.146;2023-07-09T06:15:24;13.40;;;7.32;;
24644;SDS011;12780;45.502;9.146;2023-07-09T06:17:50;13.60;;;7.93;;
24644;SDS011;12780;45.502;9.146;2023-07-09T06:20:16;20.48;;;11.30;;
24644;SDS011;12780;45.502;9.146;2023-07-09T06:22:42;44.85;;;24.05;;
24644;SDS011;12780;45.502;9.146;2023-07-09T06:25:08;49.67;;;24.33;;
24644;SDS011;12780;45.502;9.146;2023-07-09T06:27:34;48.00;;;22.58;;
24644;SDS011;12780;45.502;9.146;2023-07-09T06:30:00;44.65;;;22.20;;
24644;SDS011;12780;45.502;9.146;2023-07-09T06:32:26;61.22;;;26.85;;
24644;SDS011;12780;45.502;9.146;2023-07-09T06:34:52;19.48;;;10.65;;
24644;SDS011;12780;45.502;9.146;2023-07-09T06:37:18;24.35;;;11.43;;
24644;SDS011;12780;45.502;9.146;2023-07-09T06:39:44;17.27;;;9.60;;
24644;SDS011;12780;45.502;9.146;2023-07-09T06:42:10;19.10;;;8.63;;
24644;SDS011;12780;45.502;9.146;2023-07-09T06:44:36;13.57;;;7.93;;
24644;SDS011;12780;45.502;9.146;2023-07-09T06:47:02;20.95;;;7.30;;
24644;SDS011;12780;45.502;9.146;2023-07-09T06:49:28;14.02;;;7.13;;
24644;SDS011;12780;45.502;9.146;2023-07-09T06:51:54;12.98;;;7.22;;
24644;SDS011;12780;45.502;9.146;2023-07-09T06:54:20;11.10;;;7.50;;
24644;SDS011;12780;45.502;9.146;2023-07-09T06:56:46;12.07;;;6.40;;
24644;SDS011;12780;45.502;9.146;2023-07-09T06:59:12;14.30;;;6.90;;
24644;SDS011;12780;45.502;9.146;2023-07-09T07:01:38;15.52;;;7.18;;
24644;SDS011;12780;45.502;9.146;2023-07-09T07:04:05;15.35;;;7.45;;
24644;SDS011;12780;45.502;9.146;2023-07-09T07:06:31;12.98;;;7.32;;
24644;SDS011;12780;45.502;9.146;2023-07-09T07:08:57;12.63;;;7.13;;
24644;SDS011;12780;45.502;9.146;2023-07-09T07:11:23;19.83;;;7.60;;
24644;SDS011;12780;45.502;9.146;2023-07-09T07:13:54;16.80;;;7.80;;
24644;SDS011;12780;45.502;9.146;2023-07-09T07:16:20;15.25;;;7.57;;
24644;SDS011;12780;45.502;9.146;2023-07-09T07:18:47;13.60;;;7.07;;
24644;SDS011;12780;45.502;9.146;2023-07-09T07:21:13;13.52;;;7.30;;
24644;SDS011;12780;45.502;9.146;2023-07-09T07:23:39;12.95;;;7.15;;
24644;SDS011;12780;45.502;9.146;2023-07-09T07:26:05;13.52;;;7.68;;
24644;SDS011;12780;45.502;9.146;2023-07-09T07:28:34;14.65;;;8.30;;
24644;SDS011;12780;45.502;9.146;2023-07-09T07:31:01;12.60;;;7.30;;
24644;SDS011;12780;45.502;9.146;2023-07-09T07:33:27;15.18;;;8.43;;
24644;SDS011;12780;45.502;9.146;2023-07-09T07:35:53;16.48;;;7.70;;
24644;SDS011;12780;45.502;9.146;2023-07-09T07:38:19;15.35;;;7.75;;
24644;SDS011;12780;45.502;9.146;2023-07-09T07:40:46;14.15;;;7.03;;
24644;SDS011;12780;45.502;9.146;2023-07-09T07:43:12;18.05;;;8.18;;
24644;SDS011;12780;45.502;9.146;2023-07-09T07:45:41;13.65;;;7.65;;
24644;SDS011;12780;45.502;9.146;2023-07-09T07:48:07;16.80;;;7.22;;
24644;SDS011;12780;45.502;9.146;2023-07-09T07:50:33;16.73;;;7.97;;
24644;SDS011;12780;45.502;9.146;2023-07-09T07:52:59;14.00;;;7.72;;
24644;SDS011;12780;45.502;9.146;2023-07-09T07:55:25;16.75;;;7.80;;
24644;SDS011;12780;45.502;9.146;2023-07-09T07:57:52;15.18;;;7.95;;
24644;SDS011;12780;45.502;9.146;2023-07-09T08:00:18;12.60;;;7.35;;
24644;SDS011;12780;45.502;9.146;2023-07-09T08:02:44;12.55;;;7.57;;
24644;SDS011;12780;45.502;9.146;2023-07-09T08:05:10;14.07;;;8.40;;
24644;SDS011;12780;45.502;9.146;2023-07-09T08:07:36;13.93;;;8.23;;
24644;SDS011;12780;45.502;9.146;2023-07-09T08:10:02;16.45;;;8.15;;
24644;SDS011;12780;45.502;9.146;2023-07-09T08:12:29;13.30;;;8.38;;
24644;SDS011;12780;45.502;9.146;2023-07-09T08:14:55;12.38;;;7.55;;
24644;SDS011;12780;45.502;9.146;2023-07-09T08:17:21;17.27;;;8.02;;
24644;SDS011;12780;45.502;9.146;2023-07-09T08:19:51;12.30;;;7.10;;
24644;SDS011;12780;45.502;9.146;2023-07-09T08:22:18;15.45;;;7.22;;
24644;SDS011;12780;45.502;9.146;2023-07-09T08:24:48;15.23;;;7.57;;
24644;SDS011;12780;45.502;9.146;2023-07-09T08:27:14;14.27;;;7.00;;
24644;SDS011;12780;45.502;9.146;2023-07-09T08:29:40;12.05;;;7.65;;
24644;SDS011;12780;45.502;9.146;2023-07-09T08:32:07;16.25;;;7.63;;
24644;SDS011;12780;45.502;9.146;2023-07-09T08:34:33;12.77;;;7.63;;
24644;SDS011;12780;45.502;9.146;2023-07-09T08:36:59;14.90;;;7.80;;
24644;SDS011;12780;45.502;9.146;2023-07-09T08:39:25;16.92;;;7.45;;
24644;SDS011;12780;45.502;9.146;2023-07-09T08:41:57;12.38;;;7.05;;
24644;SDS011;12780;45.502;9.146;2023-07-09T08:49:37;12.00;;;6.80;;
24644;SDS011;12780;45.502;9.146;2023-07-09T08:54:50;14.38;;;7.97;;
24644;SDS011;12780;45.502;9.146;2023-07-09T08:57:24;17.42;;;9.32;;
24644;SDS011;12780;45.502;9.146;2023-07-09T08:59:52;16.27;;;8.07;;
24644;SDS011;12780;45.502;9.146;2023-07-09T09:05:03;15.55;;;8.68;;
24644;SDS011;12780;45.502;9.146;2023-07-09T09:07:34;15.63;;;7.85;;
24644;SDS011;12780;45.502;9.146;2023-07-09T09:10:04;12.57;;;7.55;;
24644;SDS011;12780;45.502;9.146;2023-07-09T09:12:33;15.50;;;6.97;;
24644;SDS011;12780;45.502;9.146;2023-07-09T09:15:19;12.02;;;6.45;;
24644;SDS011;12780;45.502;9.146;2023-07-09T09:17:46;16.45;;;7.38;;
24644;SDS011;12780;45.502;9.146;2023-07-09T09:20:20;15.85;;;7.65;;
24644;SDS011;12780;45.502;9.146;2023-07-09T09:22:57;14.15;;;7.63;;
24644;SDS011;12780;45.502;9.146;2023-07-09T09:25:27;18.50;;;7.45;;
24644;SDS011;12780;45.502;9.146;2023-07-09T09:27:53;15.85;;;7.30;;
24644;SDS011;12780;45.502;9.146;2023-07-09T09:30:21;9.90;;;6.47;;
24644;SDS011;12780;45.502;9.146;2023-07-09T09:32:58;10.27;;;6.50;;
24644;SDS011;12780;45.502;9.146;2023-07-09T09:35:26;18.92;;;6.38;;
24644;SDS011;12780;45.502;9.146;2023-07-09T09:37:53;15.02;;;7.15;;
24644;SDS011;12780;45.502;9.146;2023-07-09T09:40:20;10.07;;;6.85;;
24644;SDS011;12780;45.502;9.146;2023-07-09T09:42:48;12.43;;;6.80;;
24644;SDS011;12780;45.502;9.146;2023-07-09T09:45:16;13.38;;;6.88;;
24644;SDS011;12780;45.502;9.146;2023-07-09T09:47:45;12.73;;;7.07;;
24644;SDS011;12780;45.502;9.146;2023-07-09T09:50:15;14.05;;;7.70;;
24644;SDS011;12780;45.502;9.146;2023-07-09T09:52:42;14.68;;;7.07;;
24644;SDS011;12780;45.502;9.146;2023-07-09T09:55:18;15.13;;;6.95;;
24644;SDS011;12780;45.502;9.146;2023-07-09T09:57:48;11.80;;;6.45;;
24644;SDS011;12780;45.502;9.146;2023-07-09T10:00:15;11.18;;;6.70;;
24644;SDS011;12780;45.502;9.146;2023-07-09T10:02:41;13.00;;;6.00;;
24644;SDS011;12780;45.502;9.146;2023-07-09T10:05:20;11.05;;;6.38;;
24644;SDS011;12780;45.502;9.146;2023-07-09T10:07:57;12.63;;;7.05;;
24644;SDS011;12780;45.502;9.146;2023-07-09T10:10:26;12.07;;;6.10;;
24644;SDS011;12780;45.502;9.146;2023-07-09T10:12:57;11.63;;;6.10;;
24644;SDS011;12780;45.502;9.146;2023-07-09T10:18:02;14.32;;;6.13;;
24644;SDS011;12780;45.502;9.146;2023-07-09T10:26:11;10.63;;;5.63;;
24644;SDS011;12780;45.502;9.146;2023-07-09T10:36:36;10.85;;;7.22;;
24644;SDS011;12780;45.502;9.146;2023-07-09T10:39:12;20.15;;;7.28;;
24644;SDS011;12780;45.502;9.146;2023-07-09T10:41:40;13.10;;;6.82;;
24644;SDS011;12780;45.502;9.146;2023-07-09T10:44:16;15.18;;;6.38;;
24644;SDS011;12780;45.502;9.146;2023-07-09T10:46:45;10.85;;;6.35;;
24644;SDS011;12780;45.502;9.146;2023-07-09T10:49:14;13.20;;;6.18;;
24644;SDS011;12780;45.502;9.146;2023-07-09T10:56:34;9.35;;;6.40;;
24644;SDS011;12780;45.502;9.146;2023-07-09T11:01:43;13.13;;;6.95;;
24644;SDS011;12780;45.502;9.146;2023-07-09T11:06:44;13.68;;;6.10;;
24644;SDS011;12780;45.502;9.146;2023-07-09T11:09:20;12.45;;;6.38;;
24644;SDS011;12780;45.502;9.146;2023-07-09T11:11:49;10.63;;;6.18;;
24644;SDS011;12780;45.502;9.146;2023-07-09T11:17:00;11.38;;;6.18;;
24644;SDS011;12780;45.502;9.146;2023-07-09T11:19:27;14.13;;;6.13;;
24644;SDS011;12780;45.502;9.146;2023-07-09T11:21:57;11.40;;;5.97;;
24644;SDS011;12780;45.502;9.146;2023-07-09T11:24:46;10.27;;;5.78;;
24644;SDS011;12780;45.502;9.146;2023-07-09T11:27:16;14.48;;;5.78;;
24644;SDS011;12780;45.502;9.146;2023-07-09T11:29:55;10.68;;;5.93;;
24644;SDS011;12780;45.502;9.146;2023-07-09T11:32:22;10.18;;;5.97;;
24644;SDS011;12780;45.502;9.146;2023-07-09T11:34:48;9.18;;;5.70;;
24644;SDS011;12780;45.502;9.146;2023-07-09T11:37:15;16.08;;;5.90;;
24644;SDS011;12780;45.502;9.146;2023-07-09T11:39:42;16.13;;;6.03;;
24644;SDS011;12780;45.502;9.146;2023-07-09T11:42:25;10.25;;;5.93;;
24644;SDS011;12780;45.502;9.146;2023-07-09T11:44:54;9.70;;;6.38;;
24644;SDS011;12780;45.502;9.146;2023-07-09T11:50:00;11.32;;;6.60;;
24644;SDS011;12780;45.502;9.146;2023-07-09T11:52:28;12.07;;;6.38;;
24644;SDS011;12780;45.502;9.146;2023-07-09T11:54:54;15.80;;;7.07;;
24644;SDS011;12780;45.502;9.146;2023-07-09T11:57:20;20.40;;;6.45;;
24644;SDS011;12780;45.502;9.146;2023-07-09T11:59:47;10.55;;;5.90;;
24644;SDS011;12780;45.502;9.146;2023-07-09T12:02:15;12.80;;;6.13;;
24644;SDS011;12780;45.502;9.146;2023-07-09T12:04:41;10.05;;;5.60;;
24644;SDS011;12780;45.502;9.146;2023-07-09T12:07:09;12.20;;;6.20;;
24644;SDS011;12780;45.502;9.146;2023-07-09T12:09:39;11.20;;;6.78;;
24644;SDS011;12780;45.502;9.146;2023-07-09T12:12:21;9.70;;;6.45;;
24644;SDS011;12780;45.502;9.146;2023-07-09T12:14:47;14.27;;;6.97;;
24644;SDS011;12780;45.502;9.146;2023-07-09T12:17:13;13.13;;;6.85;;
24644;SDS011;12780;45.502;9.146;2023-07-09T12:19:40;10.27;;;6.38;;
24644;SDS011;12780;45.502;9.146;2023-07-09T12:22:09;13.15;;;6.30;;
24644;SDS011;12780;45.502;9.146;2023-07-09T12:24:36;11.55;;;6.43;;
24644;SDS011;12780;45.502;9.146;2023-07-09T12:27:03;8.00;;;5.63;;
24644;SDS011;12780;45.502;9.146;2023-07-09T12:29:30;12.40;;;6.07;;
24644;SDS011;12780;45.502;9.146;2023-07-09T12:31:57;14.32;;;6.30;;
24644;SDS011;12780;45.502;9.146;2023-07-09T12:34:23;16.25;;;6.70;;
24644;SDS011;12780;45.502;9.146;2023-07-09T12:36:50;19.65;;;6.57;;
24644;SDS011;12780;45.502;9.146;2023-07-09T12:39:18;11.75;;;6.68;;
24644;SDS011;12780;45.502;9.146;2023-07-09T12:41:46;15.40;;;6.35;;
24644;SDS011;12780;45.502;9.146;2023-07-09T12:44:16;8.23;;;6.50;;
24644;SDS011;12780;45.502;9.146;2023-07-09T12:46:43;9.13;;;6.07;;
24644;SDS011;12780;45.502;9.146;2023-07-09T12:49:17;11.57;;;7.43;;
24644;SDS011;12780;45.502;9.146;2023-07-09T12:51:46;9.23;;;6.68;;
24644;SDS011;12780;45.502;9.146;2023-07-09T12:54:19;15.02;;;7.07;;
24644;SDS011;12780;45.502;9.146;2023-07-09T12:56:46;14.65;;;7.00;;
24644;SDS011;12780;45.502;9.146;2023-07-09T12:59:25;12.40;;;6.55;;
24644;SDS011;12780;45.502;9.146;2023-07-09T13:04:27;13.63;;;6.38;;
24644;SDS011;12780;45.502;9.146;2023-07-09T13:06:54;9.35;;;6.05;;
24644;SDS011;12780;45.502;9.146;2023-07-09T13:09:24;14.98;;;6.57;;
24644;SDS011;12780;45.502;9.146;2023-07-09T13:11:50;19.50;;;8.93;;
24644;SDS011;12780;45.502;9.146;2023-07-09T13:14:26;10.40;;;7.07;;
24644;SDS011;12780;45.502;9.146;2023-07-09T13:16:52;13.07;;;6.30;;
24644;SDS011;12780;45.502;9.146;2023-07-09T13:19:27;10.25;;;6.05;;
24644;SDS011;12780;45.502;9.146;2023-07-09T13:21:53;13.98;;;6.03;;
24644;SDS011;12780;45.502;9.146;2023-07-09T13:24:22;11.48;;;6.57;;
24644;SDS011;12780;45.502;9.146;2023-07-09T13:26:48;10.57;;;6.32;;
24644;SDS011;12780;45.502;9.146;2023-07-09T13:29:15;11.38;;;6.32;;
24644;SDS011;12780;45.502;9.146;2023-07-09T13:31:42;10.68;;;6.28;;
24644;SDS011;12780;45.502;9.146;2023-07-09T13:34:19;8.93;;;6.25;;
24644;SDS011;12780;45.502;9.146;2023-07-09T13:36:45;11.68;;;6.07;;
24644;SDS011;12780;45.502;9.146;2023-07-09T13:39:11;11.77;;;6.32;;
24644;SDS011;12780;45.502;9.146;2023-07-09T13:41:42;7.97;;;5.20;;
24644;SDS011;12780;45.502;9.146;2023-07-09T13:44:11;9.20;;;5.72;;
24644;SDS011;12780;45.502;9.146;2023-07-09T13:46:38;11.18;;;6.00;;
24644;SDS011;12780;45.502;9.146;2023-07-09T13:49:07;12.00;;;6.25;;
24644;SDS011;12780;45.502;9.146;2023-07-09T13:51:33;8.88;;;5.68;;
24644;SDS011;12780;45.502;9.146;2023-07-09T13:53:59;12.95;;;6.38;;
24644;SDS011;12780;45.502;9.146;2023-07-09T13:56:28;10.63;;;5.38;;
24644;SDS011;12780;45.502;9.146;2023-07-09T13:58:54;13.95;;;5.93;;
24644;SDS011;12780;45.502;9.146;2023-07-09T14:01:21;14.13;;;6.15;;
24644;SDS011;12780;45.502;9.146;2023-07-09T14:03:48;9.15;;;5.50;;
24644;SDS011;12780;45.502;9.146;2023-07-09T14:06:14;11.80;;;6.55;;
24644;SDS011;12780;45.502;9.146;2023-07-09T14:08:40;11.43;;;5.90;;
24644;SDS011;12780;45.502;9.146;2023-07-09T14:11:10;10.27;;;5.85;;
24644;SDS011;12780;45.502;9.146;2023-07-09T14:13:37;9.85;;;5.78;;
24644;SDS011;12780;45.502;9.146;2023-07-09T14:16:04;10.88;;;5.40;;
24644;SDS011;12780;45.502;9.146;2023-07-09T14:18:30;8.70;;;5.65;;
24644;SDS011;12780;45.502;9.146;2023-07-09T14:20:56;13.50;;;5.60;;
24644;SDS011;12780;45.502;9.146;2023-07-09T14:23:22;8.68;;;5.68;;
24644;SDS011;12780;45.502;9.146;2023-07-09T14:25:48;8.32;;;5.60;;
24644;SDS011;12780;45.502;9.146;2023-07-09T14:28:15;9.80;;;5.47;;
24644;SDS011;12780;45.502;9.146;2023-07-09T14:30:42;8.55;;;5.65;;
24644;SDS011;12780;45.502;9.146;2023-07-09T14:33:20;11.00;;;5.43;;
24644;SDS011;12780;45.502;9.146;2023-07-09T14:35:46;9.80;;;5.10;;
24644;SDS011;12780;45.502;9.146;2023-07-09T14:38:17;14.70;;;6.13;;
24644;SDS011;12780;45.502;9.146;2023-07-09T14:40:44;13.20;;;4.97;;
24644;SDS011;12780;45.502;9.146;2023-07-09T14:43:11;9.43;;;5.20;;
24644;SDS011;12780;45.502;9.146;2023-07-09T14:45:37;10.00;;;5.38;;
24644;SDS011;12780;45.502;9.146;2023-07-09T14:48:13;9.52;;;5.20;;
24644;SDS011;12780;45.502;9.146;2023-07-09T14:50:40;10.63;;;5.22;;
24644;SDS011;12780;45.502;9.146;2023-07-09T14:53:19;10.77;;;5.10;;
24644;SDS011;12780;45.502;9.146;2023-07-09T14:55:46;13.07;;;5.13;;
24644;SDS011;12780;45.502;9.146;2023-07-09T14:58:16;11.43;;;5.85;;
24644;SDS011;12780;45.502;9.146;2023-07-09T15:00:43;11.68;;;5.50;;
24644;SDS011;12780;45.502;9.146;2023-07-09T15:03:11;10.05;;;5.35;;
24644;SDS011;12780;45.502;9.146;2023-07-09T15:05:37;10.23;;;5.57;;
24644;SDS011;12780;45.502;9.146;2023-07-09T15:08:12;9.20;;;5.13;;
24644;SDS011;12780;45.502;9.146;2023-07-09T15:10:38;10.98;;;5.15;;
24644;SDS011;12780;45.502;9.146;2023-07-09T15:13:04;8.27;;;4.85;;
24644;SDS011;12780;45.502;9.146;2023-07-09T15:15:33;9.45;;;5.00;;
24644;SDS011;12780;45.502;9.146;2023-07-09T15:18:00;11.55;;;5.10;;
24644;SDS011;12780;45.502;9.146;2023-07-09T15:20:26;13.10;;;6.00;;
24644;SDS011;12780;45.502;9.146;2023-07-09T15:22:54;8.40;;;5.25;;
24644;SDS011;12780;45.502;9.146;2023-07-09T15:25:22;8.20;;;5.40;;
24644;SDS011;12780;45.502;9.146;2023-07-09T15:27:49;12.15;;;5.40;;